Time;durP1;ratioP1;P1;durP2;ratioP2;P2;SDS_P1;SDS_P2;PMS_P1;PMS_P2;Temp;Humidity;BMP_temperature;BMP_pressure;BME280_temperature;BME280_humidity;BME280_pressure;Samples;Min_cycle;Max_cycle;Signal;HPM_P1;HPM_P2
2021/10/02 00:45:22;;;;;;;15.23;9.18;;;;;;;7.08;100.00;98368.94;5083498;28;20522;-75
2021/10/02 00:47:48;;;;;;;17.23;9.20;;;;;;;7.15;100.00;98379.38;5067634;28;20040;-75
2021/10/02 00:50:14;;;;;;;17.60;8.40;;;;;;;7.10;100.00;98360.94;5091820;28;20031;-75
2021/10/02 00:52:41;;;;;;;17.27;8.65;;;;;;;7.13;100.00;98375.91;5092004;28;20085;-75
2021/10/02 00:55:07;;;;;;;14.27;8.85;;;;;;;7.06;100.00;98373.47;5091962;28;20024;-76
2021/10/02 00:57:33;;;;;;;15.88;9.15;;;;;;;6.89;100.00;98349.22;5082383;28;20059;-76
2021/10/02 00:59:59;;;;;;;22.50;10.57;;;;;;;7.01;100.00;98359.44;5059993;28;20055;-76
2021/10/02 01:02:57;;;;;;;17.00;8.73;;;;;;;7.01;100.00;98372.72;5087815;28;20035;-76
2021/10/02 01:05:32;;;;;;;15.52;9.32;;;;;;;7.05;100.00;98366.41;5055105;28;20060;-76
2021/10/02 01:08:16;;;;;;;15.30;8.85;;;;;;;7.00;100.00;98368.34;5091725;28;20449;-76
2021/10/02 01:10:56;;;;;;;12.32;8.10;;;;;;;6.95;100.00;98362.31;5085332;28;20016;-75
2021/10/02 01:13:32;;;;;;;12.00;7.85;;;;;;;6.89;100.00;98357.19;5083798;28;20033;-76
2021/10/02 01:16:26;;;;;;;14.32;7.93;;;;;;;6.87;100.00;98359.06;5088041;28;20096;-76
2021/10/02 01:19:10;;;;;;;17.00;8.43;;;;;;;6.87;100.00;98356.41;5070880;28;20468;-76
2021/10/02 01:22:13;;;;;;;12.43;8.00;;;;;;;6.73;100.00;98353.34;5090296;28;20407;-76
2021/10/02 01:25:00;;;;;;;14.10;7.80;;;;;;;6.68;100.00;98357.06;5086125;28;20393;-75
2021/10/02 01:27:56;;;;;;;12.63;8.27;;;;;;;6.73;100.00;98363.97;5071317;28;20020;-76
2021/10/02 01:33:07;;;;;;;13.38;7.90;;;;;;;6.69;100.00;98358.81;5071343;28;20029;-76
2021/10/02 01:35:46;;;;;;;13.60;8.20;;;;;;;6.66;100.00;98361.56;5055276;28;20071;-76
2021/10/02 01:49:15;;;;;;;14.43;8.95;;;;;;;6.42;100.00;98353.50;5091183;28;20059;-76
2021/10/02 01:51:43;;;;;;;17.23;9.43;;;;;;;6.22;100.00;98325.81;5074207;28;20043;-75
2021/10/02 01:54:08;;;;;;;18.65;9.07;;;;;;;6.27;100.00;98331.88;5091091;28;20062;-75
2021/10/02 01:56:34;;;;;;;17.23;8.98;;;;;;;6.21;100.00;98324.09;5074184;28;20024;-76
2021/10/02 01:59:00;;;;;;;15.07;8.45;;;;;;;6.29;100.00;98348.63;5091326;28;20016;-76
2021/10/02 02:01:27;;;;;;;20.42;9.90;;;;;;;6.18;100.00;98348.97;5059625;28;20035;-76
2021/10/02 02:03:56;;;;;;;21.38;9.02;;;;;;;5.89;100.00;98310.03;5071149;28;20512;-76
2021/10/02 02:06:26;;;;;;;18.05;10.20;;;;;;;5.97;100.00;98334.56;5080189;28;20020;-76
2021/10/02 02:08:52;;;;;;;18.13;9.95;;;;;;;6.04;100.00;98345.88;5069248;28;20044;-76
2021/10/02 02:11:18;;;;;;;18.20;8.63;;;;;;;6.07;100.00;98350.22;5075405;28;20384;-76
2021/10/02 02:13:44;;;;;;;14.15;8.18;;;;;;;5.93;100.00;98327.63;5087395;28;20476;-76
2021/10/02 02:16:11;;;;;;;20.02;9.15;;;;;;;5.99;100.00;98338.06;5054050;28;20020;-76
2021/10/02 02:18:37;;;;;;;15.15;8.50;;;;;;;6.04;100.00;98334.38;5066511;28;20025;-75
2021/10/02 02:21:05;;;;;;;14.25;8.98;;;;;;;6.13;100.00;98344.69;5057756;28;20407;-76
2021/10/02 02:23:31;;;;;;;15.95;9.02;;;;;;;6.16;100.00;98341.94;5057899;28;20485;-76
2021/10/02 02:26:00;;;;;;;18.10;8.40;;;;;;;6.18;100.00;98337.47;5087815;28;20069;-75
2021/10/02 02:28:28;;;;;;;14.02;8.70;;;;;;;6.24;100.00;98347.91;5058732;28;20544;-76
2021/10/02 02:30:53;;;;;;;17.60;8.60;;;;;;;6.26;100.00;98327.47;5061448;28;20162;-76
2021/10/02 02:33:19;;;;;;;19.33;9.38;;;;;;;6.34;100.00;98344.88;5078295;28;20524;-76
2021/10/02 02:35:45;;;;;;;14.40;8.95;;;;;;;6.20;100.00;98338.28;5090610;28;20036;-76
2021/10/02 02:38:11;;;;;;;17.38;9.35;;;;;;;6.19;100.00;98344.50;5075833;28;20029;-76
2021/10/02 02:40:37;;;;;;;20.02;10.70;;;;;;;6.09;100.00;98333.28;5067540;28;20051;-75
2021/10/02 02:43:03;;;;;;;22.38;11.88;;;;;;;6.10;100.00;98339.47;5077400;28;20036;-76
2021/10/02 02:48:18;;;;;;;26.88;9.75;;;;;;;6.21;100.00;98353.31;5091095;28;20035;-76
2021/10/02 02:50:50;;;;;;;17.60;8.23;;;;;;;6.09;100.00;98345.72;5090603;28;20031;-76
2021/10/02 02:53:22;;;;;;;13.30;7.75;;;;;;;6.06;100.00;98353.78;5057344;28;20028;-76
2021/10/02 02:55:51;;;;;;;14.65;8.77;;;;;;;5.83;100.00;98334.09;5094110;28;20040;-75
2021/10/02 02:58:18;;;;;;;18.35;9.52;;;;;;;5.88;100.00;98334.84;5073078;28;20032;-76
2021/10/02 03:00:54;;;;;;;15.95;8.95;;;;;;;5.54;100.00;98285.47;5075756;28;20036;-75
2021/10/02 03:03:25;;;;;;;15.52;9.50;;;;;;;5.73;100.00;98326.44;5074238;28;20614;-76
2021/10/02 03:05:51;;;;;;;15.40;9.33;;;;;;;5.72;100.00;98328.22;5057152;28;20028;-75
2021/10/02 03:08:18;;;;;;;15.85;8.82;;;;;;;5.63;100.00;98317.88;5074127;28;20438;-75
2021/10/02 03:14:06;;;;;;;25.25;9.23;;;;;;;5.80;100.00;98326.22;5095686;28;20043;-75
2021/10/02 03:16:32;;;;;;;16.40;8.98;;;;;;;5.79;100.00;98335.09;5093827;28;20019;-75
2021/10/02 03:19:03;;;;;;;20.67;10.00;;;;;;;5.76;100.00;98334.31;5068330;28;20020;-74
2021/10/02 03:21:29;;;;;;;19.38;9.63;;;;;;;5.72;100.00;98338.00;5068330;28;20028;-76
2021/10/02 03:23:55;;;;;;;16.75;9.18;;;;;;;5.71;100.00;98342.44;5062452;28;20521;-74
2021/10/02 03:26:21;;;;;;;19.90;9.88;;;;;;;5.52;100.00;98319.13;5057942;28;20027;-75
2021/10/02 03:28:48;;;;;;;17.63;9.45;;;;;;;5.50;100.00;98316.53;5093999;28;20411;-75
2021/10/02 03:31:14;;;;;;;18.05;9.38;;;;;;;5.55;100.00;98322.56;5059859;28;20020;-75
2021/10/02 03:33:40;;;;;;;15.77;8.88;;;;;;;5.40;100.00;98321.22;5056487;28;20059;-75
2021/10/02 03:36:05;;;;;;;33.05;9.10;;;;;;;5.50;100.00;98332.47;5091549;28;20059;-76
2021/10/02 03:38:31;;;;;;;12.32;8.25;;;;;;;5.26;100.00;98290.72;5065891;28;20028;-75
2021/10/02 03:41:01;;;;;;;17.77;8.52;;;;;;;5.40;100.00;98329.19;5086908;28;20637;-76
2021/10/02 03:43:34;;;;;;;21.90;8.50;;;;;;;5.40;100.00;98328.31;5076604;28;20463;-76
2021/10/02 03:46:00;;;;;;;16.40;7.97;;;;;;;5.29;100.00;98318.00;5093583;28;20020;-76
2021/10/02 03:48:27;;;;;;;14.55;8.40;;;;;;;5.26;100.00;98322.56;5058509;28;20120;-76
2021/10/02 03:50:53;;;;;;;15.05;7.97;;;;;;;5.37;100.00;98325.75;5089172;28;20506;-76
2021/10/02 03:53:19;;;;;;;13.65;8.35;;;;;;;5.21;100.00;98308.53;5076353;28;20020;-76
2021/10/02 03:55:45;;;;;;;13.55;8.32;;;;;;;5.25;100.00;98315.50;5064439;28;20105;-75
2021/10/02 03:58:11;;;;;;;11.98;8.05;;;;;;;5.21;100.00;98324.44;5079634;28;20053;-76
2021/10/02 04:00:36;;;;;;;15.50;8.73;;;;;;;5.16;100.00;98310.47;5093091;28;20089;-76
2021/10/02 04:03:02;;;;;;;16.42;8.60;;;;;;;5.19;100.00;98316.56;5094455;28;20049;-76
2021/10/02 04:05:27;;;;;;;16.10;9.30;;;;;;;5.27;100.00;98326.94;5075373;28;20028;-75
2021/10/02 04:07:53;;;;;;;16.65;8.90;;;;;;;5.29;100.00;98330.41;5077903;28;20020;-75
2021/10/02 04:10:18;;;;;;;16.50;9.32;;;;;;;5.16;100.00;98316.63;5068886;28;20021;-76
2021/10/02 04:12:44;;;;;;;19.30;8.80;;;;;;;5.30;100.00;98337.44;5058375;28;20027;-76
2021/10/02 04:15:10;;;;;;;16.30;9.27;;;;;;;5.12;100.00;98320.28;5076152;28;20020;-76
2021/10/02 04:17:36;;;;;;;19.75;9.90;;;;;;;5.05;100.00;98308.09;5075567;28;20414;-76
2021/10/02 04:20:03;;;;;;;13.85;9.18;;;;;;;4.98;100.00;98289.75;5092714;28;20024;-76
2021/10/02 04:22:28;;;;;;;16.90;9.27;;;;;;;5.12;100.00;98324.69;5092783;28;20032;-76
2021/10/02 04:24:54;;;;;;;16.85;8.43;;;;;;;5.08;100.00;98321.25;5089138;28;20020;-75
2021/10/02 04:27:19;;;;;;;16.45;9.07;;;;;;;4.98;100.00;98316.28;5087665;28;20031;-76
2021/10/02 04:29:45;;;;;;;14.90;8.55;;;;;;;5.15;100.00;98335.22;5083931;28;20028;-76
2021/10/02 04:32:11;;;;;;;18.75;9.88;;;;;;;5.20;100.00;98339.47;5093720;28;20024;-76
2021/10/02 04:34:36;;;;;;;15.00;9.43;;;;;;;5.16;100.00;98334.31;5092562;28;20058;-75
2021/10/02 04:37:02;;;;;;;18.45;9.48;;;;;;;5.22;100.00;98342.09;5092484;28;20052;-76
2021/10/02 04:39:28;;;;;;;17.27;9.77;;;;;;;5.23;100.00;98338.56;5092312;28;20034;-75
2021/10/02 04:41:54;;;;;;;20.35;9.98;;;;;;;5.33;100.00;98340.00;5075525;28;20097;-74
2021/10/02 04:44:21;;;;;;;15.00;9.50;;;;;;;5.35;100.00;98344.34;5075767;28;20016;-75
2021/10/02 04:46:46;;;;;;;21.80;10.20;;;;;;;5.32;100.00;98338.28;5093419;28;20078;-75
2021/10/02 04:49:12;;;;;;;18.55;11.45;;;;;;;5.42;100.00;98345.94;5092318;28;20020;-76
2021/10/02 04:51:38;;;;;;;20.35;10.32;;;;;;;5.37;100.00;98328.41;5075208;28;20032;-75
2021/10/02 04:54:04;;;;;;;17.65;9.93;;;;;;;5.49;100.00;98336.00;5081156;28;20033;-75
2021/10/02 04:56:30;;;;;;;17.58;9.93;;;;;;;5.63;100.00;98344.41;5078787;28;20119;-76
2021/10/02 04:58:56;;;;;;;24.90;10.57;;;;;;;5.71;100.00;98347.75;5093699;28;20103;-75
2021/10/02 05:01:22;;;;;;;24.65;11.82;;;;;;;5.75;100.00;98340.56;5070927;28;20032;-76
2021/10/02 05:03:48;;;;;;;39.03;16.92;;;;;;;5.73;100.00;98295.47;5091833;28;20032;-75
2021/10/02 05:06:13;;;;;;;33.00;18.02;;;;;;;6.57;100.00;98349.47;5088541;28;20043;-76
2021/10/02 05:08:41;;;;;;;34.55;17.17;;;;;;;7.41;100.00;98339.41;5074682;28;20115;-77
2021/10/02 05:11:07;;;;;;;33.08;14.35;;;;;;;7.99;100.00;98304.31;5074384;28;20027;-77
2021/10/02 05:13:34;;;;;;;31.17;11.43;;;;;;;8.71;91.85;98324.47;5074653;28;20020;-76
2021/10/02 05:16:03;;;;;;;20.13;9.25;;;;;;;9.88;85.54;98353.94;5092022;28;20027;-77
2021/10/02 05:18:29;;;;;;;18.63;9.23;;;;;;;10.23;79.96;98328.28;5091032;28;20055;-75
2021/10/02 05:20:54;;;;;;;23.42;11.23;;;;;;;10.70;75.35;98332.19;5092273;28;20509;-77
2021/10/02 05:23:20;;;;;;;27.70;14.38;;;;;;;11.24;72.48;98365.97;5091529;28;20028;-76
2021/10/02 05:25:45;;;;;;;37.65;15.48;;;;;;;11.79;67.73;98314.84;5092546;28;20028;-76
2021/10/02 05:28:11;;;;;;;41.35;22.20;;;;;;;12.63;63.57;98346.75;5091466;28;20028;-76
2021/10/02 05:30:37;;;;;;;35.05;16.15;;;;;;;12.39;63.03;98315.97;5092764;28;20061;-76
2021/10/02 05:33:06;;;;;;;36.28;17.40;;;;;;;12.99;61.45;98368.78;5092609;28;20020;-76
2021/10/02 05:35:33;;;;;;;51.63;26.00;;;;;;;12.79;60.21;98346.75;5091159;28;20028;-76
2021/10/02 05:37:59;;;;;;;52.65;25.70;;;;;;;12.89;61.38;98377.44;5092253;28;20028;-76
2021/10/02 05:40:24;;;;;;;54.70;26.65;;;;;;;13.70;59.00;98369.00;5092097;28;20032;-76
2021/10/02 05:42:53;;;;;;;60.70;27.35;;;;;;;14.24;56.63;98361.16;5090976;28;20028;-77
2021/10/02 05:45:18;;;;;;;65.13;28.27;;;;;;;13.90;57.14;98359.72;5092385;28;20107;-76
2021/10/02 05:47:44;;;;;;;63.85;27.63;;;;;;;13.70;58.16;98369.00;5074416;28;20128;-77
2021/10/02 05:50:09;;;;;;;52.92;21.08;;;;;;;14.22;57.93;98376.50;5092292;28;20483;-76
2021/10/02 05:52:35;;;;;;;48.60;23.15;;;;;;;14.94;54.91;98347.56;5092230;28;20094;-76
2021/10/02 05:55:01;;;;;;;38.55;19.35;;;;;;;15.67;54.09;98383.88;5092156;28;20479;-76
2021/10/02 05:57:27;;;;;;;26.17;15.05;;;;;;;15.98;52.73;98350.22;5091146;28;20411;-76
2021/10/02 05:59:52;;;;;;;31.30;14.80;;;;;;;17.40;49.69;98378.47;5092078;28;20044;-76
2021/10/02 06:02:18;;;;;;;30.75;15.77;;;;;;;18.18;47.10;98364.16;5090703;28;20042;-75
2021/10/02 06:04:43;;;;;;;22.90;13.75;;;;;;;18.27;46.52;98330.06;5092457;28;20012;-78
2021/10/02 06:07:09;;;;;;;27.65;14.23;;;;;;;18.71;45.46;98338.19;5091805;28;20032;-77
2021/10/02 06:09:34;;;;;;;29.60;12.57;;;;;;;19.69;44.00;98364.22;5092035;28;20020;-77
2021/10/02 06:12:00;;;;;;;23.73;12.20;;;;;;;20.19;42.18;98338.09;5092146;28;20104;-77
2021/10/02 06:14:26;;;;;;;22.50;11.95;;;;;;;20.49;42.00;98359.00;5090904;28;20031;-76
2021/10/02 06:16:52;;;;;;;26.15;12.80;;;;;;;21.98;39.28;98363.28;5091266;28;20024;-77
2021/10/02 06:19:18;;;;;;;18.48;9.27;;;;;;;21.78;38.94;98353.38;5090537;28;20031;-77
2021/10/02 06:21:45;;;;;;;17.02;8.15;;;;;;;21.34;39.59;98337.63;5091689;28;20410;-78
2021/10/02 06:24:11;;;;;;;15.70;9.35;;;;;;;22.13;38.95;98361.81;5090435;28;20039;-77
2021/10/02 06:26:38;;;;;;;12.40;7.90;;;;;;;22.01;38.30;98364.84;5073715;28;20060;-76
2021/10/02 06:29:04;;;;;;;16.55;7.97;;;;;;;22.12;38.64;98357.38;5071896;28;20032;-77
2021/10/02 06:31:30;;;;;;;12.10;7.82;;;;;;;23.15;36.96;98363.56;5075418;28;20016;-76
2021/10/02 06:33:55;;;;;;;9.18;7.25;;;;;;;22.87;36.88;98326.38;5075716;28;20455;-77
2021/10/02 06:36:21;;;;;;;13.57;8.75;;;;;;;22.15;37.56;98343.44;5075378;28;20502;-77
2021/10/02 06:38:47;;;;;;;11.65;7.22;;;;;;;22.92;37.35;98369.56;5075447;28;20054;-77
2021/10/02 06:41:12;;;;;;;16.63;6.93;;;;;;;22.59;37.03;98365.53;5074749;28;20040;-78
2021/10/02 06:43:38;;;;;;;11.77;8.35;;;;;;;20.56;41.40;98390.09;5078952;28;20031;-77
2021/10/02 06:46:04;;;;;;;15.63;7.70;;;;;;;21.01;40.54;98385.94;5094263;28;20028;-79
2021/10/02 06:48:30;;;;;;;14.85;9.18;;;;;;;21.72;39.93;98359.41;5077654;28;20547;-77
2021/10/02 06:50:55;;;;;;;35.95;9.23;;;;;;;22.14;38.73;98369.00;5095767;28;20082;-77
2021/10/02 06:53:21;;;;;;;19.00;9.63;;;;;;;21.70;39.18;98366.88;5093851;28;20510;-78
2021/10/02 06:55:46;;;;;;;15.32;8.65;;;;;;;21.90;39.26;98341.34;5094671;28;20024;-78
2021/10/02 07:01:34;;;;;;;18.67;10.25;;;;;;;22.30;38.93;98359.34;5095473;28;20042;-77
2021/10/02 07:03:59;;;;;;;12.27;8.00;;;;;;;22.60;38.21;98362.66;5093677;28;20020;-77
2021/10/02 07:06:25;;;;;;;15.98;8.75;;;;;;;21.74;38.85;98375.63;5093954;28;20055;-77
2021/10/02 07:08:50;;;;;;;14.45;7.57;;;;;;;20.89;40.72;98343.53;5095213;28;20056;-77
2021/10/02 07:11:16;;;;;;;13.43;7.35;;;;;;;21.96;39.02;98370.75;5095345;28;20082;-78
2021/10/02 07:13:41;;;;;;;13.73;7.72;;;;;;;19.76;42.39;98297.56;5093517;28;20024;-79
2021/10/02 07:16:07;;;;;;;12.32;8.38;;;;;;;21.58;40.18;98368.00;5076718;28;20028;-77
2021/10/02 07:18:32;;;;;;;35.35;23.05;;;;;;;22.47;38.29;98355.81;5092214;28;20063;-76
2021/10/02 07:20:58;;;;;;;10.60;8.05;;;;;;;22.08;38.47;98325.97;5074587;28;20039;-77
2021/10/02 07:23:24;;;;;;;10.73;7.60;;;;;;;23.23;36.59;98332.72;5091556;28;20028;-76
2021/10/02 07:25:50;;;;;;;17.83;7.25;;;;;;;23.75;35.63;98358.34;5094732;28;20027;-77
2021/10/02 07:28:15;;;;;;;14.68;7.70;;;;;;;23.83;35.45;98325.66;5093490;28;20050;-76
2021/10/02 07:30:41;;;;;;;16.75;7.35;;;;;;;23.80;35.08;98315.03;5093451;28;20024;-77
2021/10/02 07:33:07;;;;;;;13.63;7.95;;;;;;;24.31;35.27;98319.69;5094536;28;20475;-77
2021/10/02 07:35:32;;;;;;;17.75;8.35;;;;;;;24.01;35.55;98315.53;5094623;28;20380;-77
2021/10/02 07:41:20;;;;;;;17.02;9.23;;;;;;;23.84;35.89;98343.75;5073062;28;20458;-77
2021/10/02 07:43:56;;;;;;;16.48;8.20;;;;;;;23.97;34.94;98324.19;5073231;28;20020;-76
2021/10/02 07:46:22;;;;;;;20.45;7.40;;;;;;;23.67;35.52;98337.31;5087445;28;20060;-76
2021/10/02 07:48:52;;;;;;;13.93;6.93;;;;;;;23.90;35.21;98339.53;5093333;28;20176;-77
2021/10/02 07:51:20;;;;;;;13.48;7.45;;;;;;;23.83;35.25;98314.72;5094928;28;20381;-78
2021/10/02 07:53:46;;;;;;;14.10;6.60;;;;;;;23.75;35.64;98344.69;5092928;28;20031;-77
2021/10/02 07:56:12;;;;;;;8.60;6.05;;;;;;;24.68;34.68;98338.50;5093007;28;20020;-77
2021/10/02 07:58:38;;;;;;;17.90;6.53;;;;;;;24.58;33.77;98316.75;5093850;28;20030;-77
2021/10/02 08:01:03;;;;;;;15.38;5.32;;;;;;;25.19;32.79;98330.19;5094281;28;20483;-77
2021/10/02 08:03:31;;;;;;;10.45;5.65;;;;;;;25.62;31.79;98314.53;5094024;28;20020;-77
2021/10/02 08:05:57;;;;;;;13.15;4.82;;;;;;;26.10;30.23;98299.94;5076132;28;20416;-76
2021/10/02 08:08:22;;;;;;;15.07;4.80;;;;;;;25.81;30.97;98284.88;5093890;28;20080;-76
2021/10/02 08:10:49;;;;;;;10.70;5.05;;;;;;;26.22;30.87;98304.06;5075751;28;20427;-78
2021/10/02 08:13:15;;;;;;;12.05;5.22;;;;;;;26.85;30.17;98302.16;5094004;28;20024;-78
2021/10/02 08:15:56;;;;;;;6.60;4.85;;;;;;;27.27;29.62;98282.50;5092513;28;20534;-77
2021/10/02 08:18:23;;;;;;;7.72;5.05;;;;;;;26.05;30.45;98292.25;5092798;28;20403;-77
2021/10/02 08:20:49;;;;;;;8.73;5.30;;;;;;;26.08;30.81;98280.91;5092350;28;20120;-76
2021/10/02 08:23:16;;;;;;;9.00;4.82;;;;;;;25.37;31.47;98308.13;5092357;28;20028;-78
2021/10/02 08:25:50;;;;;;;10.25;5.15;;;;;;;24.11;32.87;98310.84;5092326;28;20028;-76
2021/10/02 08:28:16;;;;;;;16.38;5.47;;;;;;;24.13;32.46;98276.00;5092601;28;20024;-77
2021/10/02 08:30:46;;;;;;;9.65;4.82;;;;;;;25.47;30.87;98302.50;5093688;28;20051;-77
2021/10/02 08:33:12;;;;;;;6.78;4.53;;;;;;;25.78;30.38;98270.66;5092246;28;20036;-76
2021/10/02 08:35:39;;;;;;;6.03;4.40;;;;;;;26.22;30.01;98266.50;5075169;28;20035;-75
2021/10/02 08:38:06;;;;;;;10.60;5.13;;;;;;;25.79;30.37;98302.53;5093615;28;20024;-75
2021/10/02 08:40:32;;;;;;;11.77;5.28;;;;;;;25.47;31.05;98305.25;5074974;28;20468;-75
2021/10/02 08:42:58;;;;;;;9.10;4.78;;;;;;;26.10;30.60;98291.69;5093119;28;20034;-76
2021/10/02 08:45:28;;;;;;;10.73;5.80;;;;;;;27.86;28.45;98291.03;5092332;28;20464;-75
2021/10/02 08:47:54;;;;;;;9.48;4.72;;;;;;;28.37;28.12;98294.84;5091866;28;20040;-76
2021/10/02 08:50:19;;;;;;;8.88;5.03;;;;;;;29.59;26.46;98281.19;5093242;28;20023;-77
2021/10/02 08:56:07;;;;;;;15.98;5.10;;;;;;;27.74;27.49;98265.00;5093636;28;20083;-76
2021/10/02 08:58:32;;;;;;;6.88;4.18;;;;;;;28.73;26.42;98257.25;5091782;28;20060;-76
2021/10/02 09:01:00;;;;;;;16.52;5.28;;;;;;;28.57;27.55;98273.97;5074626;28;20028;-77
2021/10/02 09:03:26;;;;;;;7.18;4.45;;;;;;;27.53;28.00;98257.47;5093084;28;20509;-76
2021/10/02 09:05:52;;;;;;;16.23;5.50;;;;;;;27.90;27.85;98253.84;5087209;28;20028;-76
2021/10/02 09:08:17;;;;;;;9.00;4.93;;;;;;;26.90;28.72;98253.03;5071436;28;20126;-77
2021/10/02 09:10:43;;;;;;;13.18;4.65;;;;;;;28.01;27.81;98264.41;5072592;28;20107;-76
2021/10/02 09:13:09;;;;;;;5.18;4.03;;;;;;;25.94;29.56;98254.19;5072567;28;20028;-76
2021/10/02 09:15:35;;;;;;;7.88;4.22;;;;;;;25.69;30.22;98255.22;5071131;28;20105;-77
2021/10/02 09:18:00;;;;;;;12.55;4.40;;;;;;;26.70;28.66;98243.50;5071417;28;20417;-77
2021/10/02 09:20:26;;;;;;;10.63;4.35;;;;;;;26.37;28.29;98241.91;5081265;28;20024;-77
2021/10/02 09:23:03;;;;;;;9.35;4.13;;;;;;;26.68;28.78;98239.22;5074483;28;20417;-78
2021/10/02 09:25:31;;;;;;;9.20;3.63;;;;;;;27.99;27.09;98239.81;5092066;28;20036;-77
2021/10/02 09:28:17;;;;;;;6.75;4.07;;;;;;;29.64;24.94;98220.75;5091582;28;20056;-77
2021/10/02 09:30:44;;;;;;;9.02;3.95;;;;;;;28.66;25.47;98227.94;5091595;28;20562;-78
2021/10/02 09:33:20;;;;;;;8.82;3.90;;;;;;;28.75;25.69;98230.38;5074629;28;20483;-78
2021/10/02 09:35:47;;;;;;;6.63;4.03;;;;;;;26.82;28.01;98217.41;5091819;28;20024;-78
2021/10/02 09:38:15;;;;;;;5.53;3.92;;;;;;;27.96;27.28;98222.84;5091500;28;20383;-78
2021/10/02 09:40:52;;;;;;;8.32;3.78;;;;;;;28.16;26.50;98213.00;5091390;28;20054;-78
2021/10/02 09:43:18;;;;;;;9.73;3.42;;;;;;;28.86;25.97;98216.09;5074715;28;20042;-78
2021/10/02 09:45:44;;;;;;;7.63;3.65;;;;;;;29.37;24.93;98211.41;5091612;28;20032;-78
2021/10/02 09:48:14;;;;;;;7.75;3.92;;;;;;;29.37;25.10;98194.84;5091513;28;20036;-77
2021/10/02 09:57:13;;;;;;;8.98;4.00;;;;;;;28.85;24.49;98186.84;5091231;28;20155;-78
2021/10/02 09:59:42;;;;;;;8.80;3.47;;;;;;;28.43;25.02;98193.06;5090036;28;20023;-78
2021/10/02 10:02:15;;;;;;;4.82;3.22;;;;;;;28.20;25.30;98189.59;5090150;28;20490;-77
2021/10/02 10:04:51;;;;;;;9.73;3.72;;;;;;;27.78;25.51;98167.34;5090086;28;20645;-78
2021/10/02 10:07:17;;;;;;;9.82;2.95;;;;;;;27.75;25.78;98190.56;5090164;28;20028;-77
2021/10/02 10:09:58;;;;;;;11.15;3.58;;;;;;;28.57;24.18;98174.84;5089886;28;20104;-78
2021/10/02 10:12:25;;;;;;;14.55;5.75;;;;;;;29.40;24.10;98177.91;5073504;28;20535;-78
2021/10/02 10:14:51;;;;;;;5.80;3.75;;;;;;;29.80;23.20;98148.75;5056695;28;20557;-78
2021/10/02 10:17:16;;;;;;;4.95;3.30;;;;;;;29.81;23.31;98152.38;5090803;28;20107;-77
2021/10/02 10:19:42;;;;;;;8.85;4.05;;;;;;;30.38;22.96;98152.94;5092118;28;20031;-77
2021/10/02 10:22:07;;;;;;;4.50;3.55;;;;;;;30.02;22.83;98166.94;5092082;28;20063;-77
2021/10/02 10:24:35;;;;;;;7.93;3.20;;;;;;;29.49;23.51;98154.66;5091563;28;20165;-77
2021/10/02 10:27:00;;;;;;;14.40;3.38;;;;;;;29.99;22.70;98163.78;5092096;28;20047;-77
2021/10/02 10:29:41;;;;;;;6.32;3.85;;;;;;;28.63;24.05;98134.66;5091480;28;20161;-77
2021/10/02 10:32:08;;;;;;;7.47;3.42;;;;;;;29.95;23.52;98151.41;5090975;28;20019;-77
2021/10/02 10:34:37;;;;;;;4.88;3.17;;;;;;;30.25;22.44;98133.53;5091992;28;20403;-78
2021/10/02 10:37:04;;;;;;;4.50;2.92;;;;;;;30.08;22.58;98146.00;5092397;28;20115;-77
2021/10/02 10:39:29;;;;;;;10.45;3.92;;;;;;;30.76;22.30;98147.81;5092075;28;20024;-78
2021/10/02 10:41:55;;;;;;;6.18;3.50;;;;;;;30.73;22.03;98131.66;5091813;28;20583;-77
2021/10/02 10:44:21;;;;;;;4.72;2.92;;;;;;;29.87;23.14;98135.03;5091911;28;20031;-77
2021/10/02 10:46:47;;;;;;;4.90;3.25;;;;;;;29.80;23.04;98125.81;5091889;28;20510;-77
2021/10/02 10:49:12;;;;;;;12.90;4.10;;;;;;;29.89;23.23;98133.78;5092211;28;20024;-78
2021/10/02 10:51:42;;;;;;;11.55;3.60;;;;;;;29.61;22.98;98134.78;5090704;28;20020;-77
2021/10/02 10:54:15;;;;;;;5.35;3.15;;;;;;;29.36;23.38;98124.22;5090662;28;20459;-77
2021/10/02 10:56:47;;;;;;;5.82;2.60;;;;;;;29.69;23.02;98098.78;5090752;28;20533;-77
2021/10/02 10:59:18;;;;;;;8.73;3.70;;;;;;;29.71;23.27;98132.53;5091955;28;20062;-78
2021/10/02 11:01:43;;;;;;;9.83;3.83;;;;;;;30.51;22.31;98128.19;5091492;28;20036;-77
2021/10/02 11:04:38;;;;;;;7.35;3.75;;;;;;;31.05;22.34;98116.22;5091439;28;20090;-77
2021/10/02 11:07:05;;;;;;;4.95;2.80;;;;;;;30.31;22.26;98088.53;5082913;28;20028;-79
2021/10/02 11:09:40;;;;;;;5.80;2.75;;;;;;;30.09;22.89;98112.66;5073368;28;20107;-77
2021/10/02 11:12:07;;;;;;;11.20;3.10;;;;;;;30.14;23.15;98117.56;5091614;28;20495;-77
2021/10/02 11:14:51;;;;;;;9.15;2.80;;;;;;;30.44;22.36;98113.47;5091671;28;20106;-77
2021/10/02 11:17:31;;;;;;;6.22;2.88;;;;;;;30.05;23.16;98111.38;5095078;28;20024;-77
2021/10/02 11:19:57;;;;;;;11.73;3.08;;;;;;;29.80;22.91;98100.97;5095028;28;20031;-77
2021/10/02 11:23:10;;;;;;;7.75;3.00;;;;;;;30.16;22.98;98096.13;5095164;28;20028;-78
2021/10/02 11:25:36;;;;;;;5.38;3.50;;;;;;;29.83;23.00;98089.56;5094018;28;20404;-77
2021/10/02 11:28:20;;;;;;;6.93;3.10;;;;;;;30.05;22.94;98088.44;5094681;28;20028;-78
2021/10/02 11:30:48;;;;;;;8.23;3.42;;;;;;;28.90;23.89;98082.44;5095035;28;20085;-77
2021/10/02 11:33:37;;;;;;;10.52;3.08;;;;;;;27.85;25.67;98085.75;5094936;28;20024;-77
2021/10/02 11:36:29;;;;;;;4.22;2.78;;;;;;;28.39;24.83;98080.78;5092832;28;20020;-77
2021/10/02 11:39:12;;;;;;;5.88;2.95;;;;;;;26.31;26.69;98070.63;5094468;28;20101;-77
2021/10/02 11:41:40;;;;;;;5.10;2.90;;;;;;;26.74;26.90;98079.25;5094493;28;20055;-76
2021/10/02 11:44:06;;;;;;;3.33;2.95;;;;;;;27.79;25.92;98064.53;5093405;28;20077;-78
2021/10/02 11:46:31;;;;;;;9.50;2.75;;;;;;;28.77;23.54;98074.03;5093287;28;20441;-77
2021/10/02 11:49:19;;;;;;;7.20;3.05;;;;;;;27.42;25.87;98073.69;5094607;28;20066;-77
2021/10/02 11:52:13;;;;;;;6.45;2.60;;;;;;;28.78;23.95;98066.63;5093419;28;20471;-78
2021/10/02 11:54:40;;;;;;;11.13;2.88;;;;;;;27.43;24.85;98076.28;5093328;28;20031;-77
2021/10/02 11:57:16;;;;;;;9.57;3.25;;;;;;;27.81;25.13;98073.47;5094142;28;20483;-77
2021/10/02 11:59:44;;;;;;;6.57;2.80;;;;;;;29.17;23.31;98072.47;5094280;28;20012;-78
2021/10/02 12:02:11;;;;;;;5.88;3.40;;;;;;;29.51;23.21;98033.97;5076365;28;20028;-77
2021/10/02 12:04:37;;;;;;;19.52;2.97;;;;;;;27.03;24.94;98046.44;5094607;28;20031;-78
2021/10/02 12:07:03;;;;;;;8.73;3.10;;;;;;;26.56;25.56;98038.38;5093534;28;20085;-78
2021/10/02 12:09:29;;;;;;;5.97;2.45;;;;;;;27.02;25.04;98041.97;5094214;28;20028;-77
2021/10/02 12:11:57;;;;;;;7.95;2.50;;;;;;;28.54;23.62;98059.56;5092730;28;20115;-76
2021/10/02 12:14:27;;;;;;;7.03;3.03;;;;;;;29.43;22.95;98031.38;5075605;28;20035;-78
2021/10/02 12:17:02;;;;;;;5.40;3.60;;;;;;;30.23;22.42;98063.88;5094464;28;20425;-78
2021/10/02 12:19:29;;;;;;;5.70;2.60;;;;;;;29.49;22.84;98063.66;5093284;28;20042;-77
2021/10/02 12:21:59;;;;;;;4.00;2.70;;;;;;;27.98;23.92;98061.19;5092532;28;20502;-78
2021/10/02 12:24:26;;;;;;;4.20;2.72;;;;;;;28.27;23.45;98063.91;5092975;28;20024;-77
2021/10/02 12:27:06;;;;;;;3.70;2.40;;;;;;;29.09;22.68;98058.84;5093576;28;20028;-77
2021/10/02 12:29:38;;;;;;;6.95;2.70;;;;;;;28.71;23.19;98054.66;5075808;28;20035;-78
2021/10/02 12:32:15;;;;;;;3.38;2.40;;;;;;;28.53;23.67;98053.19;5075955;28;20024;-77
2021/10/02 12:34:49;;;;;;;5.03;2.97;;;;;;;29.48;22.82;98066.59;5093119;28;20032;-78
2021/10/02 12:37:16;;;;;;;7.30;3.30;;;;;;;29.47;23.18;98057.47;5076100;28;20102;-78
2021/10/02 12:39:46;;;;;;;5.55;3.40;;;;;;;30.14;23.10;98065.13;5092832;28;20082;-78
2021/10/02 12:42:15;;;;;;;5.03;2.88;;;;;;;29.10;22.96;98044.03;5093584;28;20044;-78
2021/10/02 12:44:45;;;;;;;5.38;2.70;;;;;;;28.57;23.29;98058.31;5075848;28;20024;-78
2021/10/02 12:47:11;;;;;;;4.68;2.40;;;;;;;28.56;24.29;98040.09;5092054;28;20029;-78
2021/10/02 12:49:41;;;;;;;6.53;2.88;;;;;;;28.35;24.42;98046.44;5093002;28;20399;-78
2021/10/02 12:52:08;;;;;;;10.52;2.85;;;;;;;29.14;24.35;98059.09;5092324;28;20154;-78
2021/10/02 12:54:34;;;;;;;13.40;2.80;;;;;;;29.61;23.96;98054.81;5092772;28;20027;-77